Soaring Guidance
Issued by NWS Reno, NV

Home | Current Version | Previous Version | Text Only | Print | Product List | Glossary On
Versions: 1 2 3 4 5 6 7 8 9 10 11 12 13
000
UXUS97 KREV 261413
SRGREV

SOARING FORECAST
NATIONAL WEATHER SERVICE - RENO NV
700 AM PDT FRI AUG 26 2016

THIS SOARING FORECAST IS FOR THE EASTERN SIERRA AND WESTERN NEVADA
WITH SPECIFIC INDICES FOR THE GREATER RENO AREA.

THIS FORECAST IS PREPARED DAILY BY 700 AM AND IS NOT UPDATED.

FOR CURRENT FLIGHT CONDITIONS...FORECASTS...AND ADVISORIES...ACCESS
YOUR LOCAL BRIEFING OUTLET OR FLIGHT SERVICE STATION.

*******************************************************************
FORECASTED LOCAL INDICES FOR RENO:        TODAY     YESTERDAY
FORECASTED MAX TEMP AT RENO (DEG F).....     90          87
FORECASTED TRIGGER TEMPERATURE (DEG F)..     75          73
   EXCEEDED YESTERDAY BY 1055 AM PDT
FORECASTED MAXIMUM ALTITUDE (FT MSL)....  16300       16800
FORECASTED SOARING INDEX (FPM)..........    999        1074
FORECASTED K-INDEX.........VALID 18Z....      7           7
FORECASTED K-INDEX.........VALID 00Z....     11           9
FORECASTED LIFTED INDEX....VALID 18Z....      9           8
FORECASTED LIFTED INDEX....VALID 00Z....      6           6

AFTERNOON WINDS ALOFT FORECAST
MSL (FT) WIND/TEMP
9000  3108/+16
10000 3008/+13
12000 3008/+07
14000 3109/+01
16000 3211/-04
18000 3315/-10
24000 3524/-23
30000 3631/-40
34000 0137/-50
39000 3529/-58

SLIDE MOUNTAIN DATA:
     DATE       TIME     TEMP  DEWPT   RH         WIND (MPH)
                        (F)   (F)           | DIR  SPEED GUST
2016-08-26    05:00      50    26     26    | 139    2    5
2016-08-26    04:50      51    26     26    | 141    2    4
2016-08-26    04:30      51    27     26    | 134    2    5
2016-08-26    04:20      51    26     26    | 129    3    6

RENO TAF FORECAST:
KRNO 261124Z 2612/2712 VRB03KT P6SM SKC
     FM262300 32010KT P6SM SKC
     FM270400 VRB03KT P6SM SKC

CARSON CITY TAF FORECAST:
KCXP 261124Z 2612/2712 VRB03KT P6SM SKC
     FM262100 06006KT P6SM SKC
     FM270000 29010KT P6SM SKC
     FM270400 VRB03KT P6SM SKC

OUTLOOK FOR THE RENO-CARSON CITY-MINDEN AREA:
.SATURDAY...SUNNY. HIGHS 89 TO 94. WEST WINDS UP TO 10 MPH.

SUNRISE AND SUNSET
AUGUST 26 2016........SUNRISE   622 AM PDT   SUNSET   738 PM PDT
AUGUST 27 2016........SUNRISE   623 AM PDT   SUNSET   737 PM PDT


USA.gov is the U.S. government's official web portal to all federal, state and local government web resources and services.